sensor_id;sensor_type;location;lat;lon;timestamp;P1;durP1;ratioP1;P2;durP2;ratioP2
53652;SDS011;39553;52.954;5.932;2023-03-31T00:00:32;20.50;;;4.97;;
53652;SDS011;39553;52.954;5.932;2023-03-31T00:02:58;29.20;;;5.18;;
53652;SDS011;39553;52.954;5.932;2023-03-31T00:05:24;32.35;;;6.13;;
53652;SDS011;39553;52.954;5.932;2023-03-31T00:07:54;32.75;;;6.05;;
53652;SDS011;39553;52.954;5.932;2023-03-31T00:10:29;25.52;;;5.18;;
53652;SDS011;39553;52.954;5.932;2023-03-31T00:12:57;22.88;;;5.43;;
53652;SDS011;39553;52.954;5.932;2023-03-31T00:15:24;24.88;;;5.20;;
53652;SDS011;39553;52.954;5.932;2023-03-31T00:17:50;33.75;;;5.45;;
53652;SDS011;39553;52.954;5.932;2023-03-31T00:20:15;19.83;;;5.25;;
53652;SDS011;39553;52.954;5.932;2023-03-31T00:22:41;19.27;;;5.18;;
53652;SDS011;39553;52.954;5.932;2023-03-31T00:25:10;25.17;;;4.05;;
53652;SDS011;39553;52.954;5.932;2023-03-31T00:27:41;26.00;;;5.90;;
53652;SDS011;39553;52.954;5.932;2023-03-31T00:30:13;23.83;;;5.10;;
53652;SDS011;39553;52.954;5.932;2023-03-31T00:32:39;23.30;;;5.22;;
53652;SDS011;39553;52.954;5.932;2023-03-31T00:35:05;30.20;;;5.50;;
53652;SDS011;39553;52.954;5.932;2023-03-31T00:37:32;34.72;;;6.22;;
53652;SDS011;39553;52.954;5.932;2023-03-31T00:39:58;32.60;;;5.88;;
53652;SDS011;39553;52.954;5.932;2023-03-31T00:42:25;29.85;;;5.97;;
53652;SDS011;39553;52.954;5.932;2023-03-31T00:50:24;27.38;;;5.50;;
53652;SDS011;39553;52.954;5.932;2023-03-31T00:53:00;23.70;;;5.30;;
53652;SDS011;39553;52.954;5.932;2023-03-31T00:55:33;19.92;;;5.32;;
53652;SDS011;39553;52.954;5.932;2023-03-31T00:58:04;31.35;;;4.93;;
53652;SDS011;39553;52.954;5.932;2023-03-31T01:00:32;27.27;;;8.57;;
53652;SDS011;39553;52.954;5.932;2023-03-31T01:03:00;21.17;;;5.22;;
53652;SDS011;39553;52.954;5.932;2023-03-31T01:08:11;24.00;;;5.13;;
53652;SDS011;39553;52.954;5.932;2023-03-31T01:10:39;25.13;;;4.95;;
53652;SDS011;39553;52.954;5.932;2023-03-31T01:13:09;25.88;;;5.75;;
53652;SDS011;39553;52.954;5.932;2023-03-31T01:15:37;20.23;;;5.32;;
53652;SDS011;39553;52.954;5.932;2023-03-31T01:18:04;25.20;;;5.07;;
53652;SDS011;39553;52.954;5.932;2023-03-31T01:20:43;24.40;;;5.22;;
53652;SDS011;39553;52.954;5.932;2023-03-31T01:32:34;25.17;;;5.97;;
53652;SDS011;39553;52.954;5.932;2023-03-31T01:43:32;21.35;;;5.07;;
53652;SDS011;39553;52.954;5.932;2023-03-31T01:48:43;18.55;;;5.60;;
53652;SDS011;39553;52.954;5.932;2023-03-31T01:51:19;20.13;;;4.55;;
53652;SDS011;39553;52.954;5.932;2023-03-31T01:53:51;24.85;;;6.57;;
53652;SDS011;39553;52.954;5.932;2023-03-31T02:01:28;22.13;;;5.32;;
53652;SDS011;39553;52.954;5.932;2023-03-31T02:04:10;20.65;;;4.80;;
53652;SDS011;39553;52.954;5.932;2023-03-31T02:06:44;17.42;;;4.22;;
53652;SDS011;39553;52.954;5.932;2023-03-31T02:09:18;19.97;;;4.70;;
53652;SDS011;39553;52.954;5.932;2023-03-31T02:11:46;21.58;;;5.28;;
53652;SDS011;39553;52.954;5.932;2023-03-31T02:14:14;34.25;;;5.68;;
53652;SDS011;39553;52.954;5.932;2023-03-31T02:16:45;27.45;;;4.97;;
53652;SDS011;39553;52.954;5.932;2023-03-31T02:19:16;16.35;;;4.32;;
53652;SDS011;39553;52.954;5.932;2023-03-31T02:21:45;22.05;;;4.13;;
53652;SDS011;39553;52.954;5.932;2023-03-31T02:24:15;22.55;;;4.47;;
53652;SDS011;39553;52.954;5.932;2023-03-31T02:26:47;19.40;;;4.90;;
53652;SDS011;39553;52.954;5.932;2023-03-31T02:29:33;18.15;;;5.05;;
53652;SDS011;39553;52.954;5.932;2023-03-31T02:34:33;11.60;;;4.17;;
53652;SDS011;39553;52.954;5.932;2023-03-31T02:36:59;17.70;;;4.07;;
53652;SDS011;39553;52.954;5.932;2023-03-31T02:39:30;17.92;;;4.53;;
53652;SDS011;39553;52.954;5.932;2023-03-31T02:41:59;11.60;;;3.65;;
53652;SDS011;39553;52.954;5.932;2023-03-31T02:44:31;15.85;;;5.72;;
53652;SDS011;39553;52.954;5.932;2023-03-31T02:47:02;19.38;;;4.45;;
53652;SDS011;39553;52.954;5.932;2023-03-31T02:49:30;15.70;;;4.88;;
53652;SDS011;39553;52.954;5.932;2023-03-31T02:52:06;31.35;;;5.13;;
53652;SDS011;39553;52.954;5.932;2023-03-31T03:08:54;20.48;;;4.50;;
53652;SDS011;39553;52.954;5.932;2023-03-31T03:12:06;12.90;;;3.80;;
53652;SDS011;39553;52.954;5.932;2023-03-31T03:14:47;15.48;;;4.95;;
53652;SDS011;39553;52.954;5.932;2023-03-31T03:17:23;9.57;;;4.05;;
53652;SDS011;39553;52.954;5.932;2023-03-31T03:19:53;14.50;;;3.40;;
53652;SDS011;39553;52.954;5.932;2023-03-31T03:22:20;16.33;;;4.88;;
53652;SDS011;39553;52.954;5.932;2023-03-31T03:24:47;12.48;;;4.15;;
53652;SDS011;39553;52.954;5.932;2023-03-31T03:27:13;14.52;;;4.70;;
53652;SDS011;39553;52.954;5.932;2023-03-31T03:29:38;22.55;;;5.90;;
53652;SDS011;39553;52.954;5.932;2023-03-31T03:32:05;13.63;;;5.65;;
53652;SDS011;39553;52.954;5.932;2023-03-31T03:34:31;18.13;;;4.90;;
53652;SDS011;39553;52.954;5.932;2023-03-31T03:36:57;19.50;;;5.00;;
53652;SDS011;39553;52.954;5.932;2023-03-31T03:39:22;14.68;;;4.80;;
53652;SDS011;39553;52.954;5.932;2023-03-31T03:41:48;17.60;;;4.05;;
53652;SDS011;39553;52.954;5.932;2023-03-31T03:44:14;12.65;;;5.00;;
53652;SDS011;39553;52.954;5.932;2023-03-31T03:46:39;16.17;;;4.18;;
53652;SDS011;39553;52.954;5.932;2023-03-31T03:49:05;13.25;;;5.25;;
53652;SDS011;39553;52.954;5.932;2023-03-31T03:51:31;13.18;;;4.93;;
53652;SDS011;39553;52.954;5.932;2023-03-31T03:53:57;12.20;;;4.60;;
53652;SDS011;39553;52.954;5.932;2023-03-31T03:56:22;17.05;;;6.05;;
53652;SDS011;39553;52.954;5.932;2023-03-31T03:58:48;19.55;;;5.88;;
53652;SDS011;39553;52.954;5.932;2023-03-31T04:01:14;19.67;;;5.40;;
53652;SDS011;39553;52.954;5.932;2023-03-31T04:03:40;12.23;;;5.47;;
53652;SDS011;39553;52.954;5.932;2023-03-31T04:06:06;21.30;;;6.60;;
53652;SDS011;39553;52.954;5.932;2023-03-31T04:08:32;16.45;;;5.50;;
53652;SDS011;39553;52.954;5.932;2023-03-31T04:10:57;13.70;;;5.25;;
53652;SDS011;39553;52.954;5.932;2023-03-31T04:13:23;14.90;;;5.18;;
53652;SDS011;39553;52.954;5.932;2023-03-31T04:15:49;15.55;;;6.45;;
53652;SDS011;39553;52.954;5.932;2023-03-31T04:18:14;16.85;;;6.03;;
53652;SDS011;39553;52.954;5.932;2023-03-31T04:20:47;19.67;;;6.22;;
53652;SDS011;39553;52.954;5.932;2023-03-31T04:23:35;17.10;;;6.32;;
53652;SDS011;39553;52.954;5.932;2023-03-31T04:26:10;15.35;;;6.05;;
53652;SDS011;39553;52.954;5.932;2023-03-31T04:28:36;13.10;;;5.60;;
53652;SDS011;39553;52.954;5.932;2023-03-31T04:31:07;21.02;;;6.43;;
53652;SDS011;39553;52.954;5.932;2023-03-31T04:33:34;14.68;;;6.20;;
53652;SDS011;39553;52.954;5.932;2023-03-31T04:36:06;16.73;;;6.95;;
53652;SDS011;39553;52.954;5.932;2023-03-31T04:38:42;22.98;;;7.13;;
53652;SDS011;39553;52.954;5.932;2023-03-31T04:41:14;16.52;;;6.43;;
53652;SDS011;39553;52.954;5.932;2023-03-31T04:43:40;17.98;;;5.50;;
53652;SDS011;39553;52.954;5.932;2023-03-31T04:46:06;21.27;;;6.63;;
53652;SDS011;39553;52.954;5.932;2023-03-31T04:48:32;15.13;;;5.35;;
53652;SDS011;39553;52.954;5.932;2023-03-31T04:50:58;14.52;;;5.65;;
53652;SDS011;39553;52.954;5.932;2023-03-31T04:53:24;14.00;;;5.78;;
53652;SDS011;39553;52.954;5.932;2023-03-31T04:55:50;14.25;;;6.95;;
53652;SDS011;39553;52.954;5.932;2023-03-31T04:58:16;15.63;;;6.40;;
53652;SDS011;39553;52.954;5.932;2023-03-31T05:00:42;17.52;;;6.90;;
53652;SDS011;39553;52.954;5.932;2023-03-31T05:03:08;17.77;;;5.90;;
53652;SDS011;39553;52.954;5.932;2023-03-31T05:05:34;24.65;;;6.93;;
53652;SDS011;39553;52.954;5.932;2023-03-31T05:08:00;15.77;;;6.20;;
53652;SDS011;39553;52.954;5.932;2023-03-31T05:10:26;21.13;;;6.97;;
53652;SDS011;39553;52.954;5.932;2023-03-31T05:12:53;19.40;;;7.55;;
53652;SDS011;39553;52.954;5.932;2023-03-31T05:15:18;18.42;;;6.85;;
53652;SDS011;39553;52.954;5.932;2023-03-31T05:17:44;16.08;;;6.38;;
53652;SDS011;39553;52.954;5.932;2023-03-31T05:20:10;20.08;;;8.05;;
53652;SDS011;39553;52.954;5.932;2023-03-31T05:22:38;17.95;;;7.70;;
53652;SDS011;39553;52.954;5.932;2023-03-31T05:25:05;16.85;;;7.18;;
53652;SDS011;39553;52.954;5.932;2023-03-31T05:27:33;17.02;;;7.22;;
53652;SDS011;39553;52.954;5.932;2023-03-31T05:30:00;19.67;;;7.93;;
53652;SDS011;39553;52.954;5.932;2023-03-31T05:32:26;18.83;;;7.03;;
53652;SDS011;39553;52.954;5.932;2023-03-31T05:34:55;13.75;;;7.45;;
53652;SDS011;39553;52.954;5.932;2023-03-31T05:37:22;15.02;;;6.40;;
53652;SDS011;39553;52.954;5.932;2023-03-31T05:39:49;18.42;;;7.43;;
53652;SDS011;39553;52.954;5.932;2023-03-31T05:42:15;21.75;;;7.40;;
53652;SDS011;39553;52.954;5.932;2023-03-31T05:44:41;22.30;;;6.97;;
53652;SDS011;39553;52.954;5.932;2023-03-31T05:47:07;16.70;;;6.57;;
53652;SDS011;39553;52.954;5.932;2023-03-31T05:49:33;8.63;;;5.30;;
53652;SDS011;39553;52.954;5.932;2023-03-31T05:51:59;15.15;;;5.93;;
53652;SDS011;39553;52.954;5.932;2023-03-31T05:54:25;8.77;;;5.55;;
53652;SDS011;39553;52.954;5.932;2023-03-31T05:56:51;13.50;;;5.57;;
53652;SDS011;39553;52.954;5.932;2023-03-31T05:59:17;13.93;;;5.43;;
53652;SDS011;39553;52.954;5.932;2023-03-31T06:01:43;10.65;;;4.60;;
53652;SDS011;39553;52.954;5.932;2023-03-31T06:04:09;14.95;;;4.78;;
53652;SDS011;39553;52.954;5.932;2023-03-31T06:06:35;10.68;;;4.20;;
53652;SDS011;39553;52.954;5.932;2023-03-31T06:09:02;15.35;;;5.20;;
53652;SDS011;39553;52.954;5.932;2023-03-31T06:11:29;15.00;;;4.60;;
53652;SDS011;39553;52.954;5.932;2023-03-31T06:13:55;9.13;;;4.22;;
53652;SDS011;39553;52.954;5.932;2023-03-31T06:16:21;11.32;;;4.40;;
53652;SDS011;39553;52.954;5.932;2023-03-31T06:18:46;7.60;;;3.95;;
53652;SDS011;39553;52.954;5.932;2023-03-31T06:21:13;12.70;;;4.47;;
53652;SDS011;39553;52.954;5.932;2023-03-31T06:23:41;9.80;;;3.95;;
53652;SDS011;39553;52.954;5.932;2023-03-31T06:26:11;16.65;;;4.80;;
53652;SDS011;39553;52.954;5.932;2023-03-31T06:28:39;15.35;;;4.32;;
53652;SDS011;39553;52.954;5.932;2023-03-31T06:31:09;12.25;;;3.72;;
53652;SDS011;39553;52.954;5.932;2023-03-31T06:33:40;11.02;;;4.30;;
53652;SDS011;39553;52.954;5.932;2023-03-31T06:36:08;11.73;;;4.18;;
53652;SDS011;39553;52.954;5.932;2023-03-31T06:38:35;14.07;;;3.67;;
53652;SDS011;39553;52.954;5.932;2023-03-31T06:41:02;7.97;;;4.05;;
53652;SDS011;39553;52.954;5.932;2023-03-31T06:43:29;8.85;;;4.10;;
53652;SDS011;39553;52.954;5.932;2023-03-31T06:45:56;7.70;;;3.70;;
53652;SDS011;39553;52.954;5.932;2023-03-31T06:48:22;10.73;;;3.60;;
53652;SDS011;39553;52.954;5.932;2023-03-31T06:50:49;9.45;;;3.88;;
53652;SDS011;39553;52.954;5.932;2023-03-31T06:53:15;12.40;;;4.68;;
53652;SDS011;39553;52.954;5.932;2023-03-31T06:55:41;8.25;;;3.80;;
53652;SDS011;39553;52.954;5.932;2023-03-31T06:58:07;13.50;;;4.30;;
53652;SDS011;39553;52.954;5.932;2023-03-31T07:00:32;12.48;;;5.38;;
53652;SDS011;39553;52.954;5.932;2023-03-31T07:02:58;9.00;;;4.88;;
53652;SDS011;39553;52.954;5.932;2023-03-31T07:05:25;10.93;;;5.72;;
53652;SDS011;39553;52.954;5.932;2023-03-31T07:07:55;14.27;;;4.82;;
53652;SDS011;39553;52.954;5.932;2023-03-31T07:10:22;15.82;;;5.03;;
53652;SDS011;39553;52.954;5.932;2023-03-31T07:12:49;11.27;;;4.45;;
53652;SDS011;39553;52.954;5.932;2023-03-31T07:15:15;10.23;;;4.00;;
53652;SDS011;39553;52.954;5.932;2023-03-31T07:17:41;10.85;;;4.80;;
53652;SDS011;39553;52.954;5.932;2023-03-31T07:20:10;11.05;;;4.68;;
53652;SDS011;39553;52.954;5.932;2023-03-31T07:22:41;9.40;;;4.28;;
53652;SDS011;39553;52.954;5.932;2023-03-31T07:25:08;12.43;;;5.07;;
53652;SDS011;39553;52.954;5.932;2023-03-31T07:27:35;7.43;;;3.95;;
53652;SDS011;39553;52.954;5.932;2023-03-31T07:30:03;15.38;;;4.88;;
53652;SDS011;39553;52.954;5.932;2023-03-31T07:32:30;8.20;;;4.05;;
53652;SDS011;39553;52.954;5.932;2023-03-31T07:34:57;11.35;;;4.43;;
53652;SDS011;39553;52.954;5.932;2023-03-31T07:37:23;11.80;;;5.10;;
53652;SDS011;39553;52.954;5.932;2023-03-31T07:39:49;16.38;;;5.13;;
53652;SDS011;39553;52.954;5.932;2023-03-31T07:42:15;16.00;;;5.30;;
53652;SDS011;39553;52.954;5.932;2023-03-31T07:44:40;10.38;;;5.70;;
53652;SDS011;39553;52.954;5.932;2023-03-31T07:47:06;7.78;;;4.95;;
53652;SDS011;39553;52.954;5.932;2023-03-31T07:49:32;12.20;;;5.20;;
53652;SDS011;39553;52.954;5.932;2023-03-31T07:51:59;12.93;;;5.20;;
53652;SDS011;39553;52.954;5.932;2023-03-31T07:54:25;12.80;;;4.75;;
53652;SDS011;39553;52.954;5.932;2023-03-31T07:56:51;11.38;;;5.00;;
53652;SDS011;39553;52.954;5.932;2023-03-31T07:59:18;12.88;;;4.50;;
53652;SDS011;39553;52.954;5.932;2023-03-31T08:01:44;12.52;;;4.43;;
53652;SDS011;39553;52.954;5.932;2023-03-31T08:04:11;14.05;;;5.15;;
53652;SDS011;39553;52.954;5.932;2023-03-31T08:06:37;8.18;;;4.03;;
53652;SDS011;39553;52.954;5.932;2023-03-31T08:09:04;10.07;;;4.60;;
53652;SDS011;39553;52.954;5.932;2023-03-31T08:11:32;11.82;;;4.85;;
53652;SDS011;39553;52.954;5.932;2023-03-31T08:13:58;12.57;;;4.00;;
53652;SDS011;39553;52.954;5.932;2023-03-31T08:16:24;9.73;;;4.15;;
53652;SDS011;39553;52.954;5.932;2023-03-31T08:18:50;8.07;;;3.90;;
53652;SDS011;39553;52.954;5.932;2023-03-31T08:21:16;13.65;;;4.20;;
53652;SDS011;39553;52.954;5.932;2023-03-31T08:23:41;7.85;;;3.20;;
53652;SDS011;39553;52.954;5.932;2023-03-31T08:26:08;8.52;;;3.60;;
53652;SDS011;39553;52.954;5.932;2023-03-31T08:28:34;15.18;;;5.18;;
53652;SDS011;39553;52.954;5.932;2023-03-31T08:31:06;17.27;;;4.18;;
53652;SDS011;39553;52.954;5.932;2023-03-31T08:33:44;10.93;;;4.20;;
53652;SDS011;39553;52.954;5.932;2023-03-31T08:36:11;11.70;;;3.72;;
53652;SDS011;39553;52.954;5.932;2023-03-31T08:38:38;12.07;;;4.03;;
53652;SDS011;39553;52.954;5.932;2023-03-31T08:44:25;9.52;;;3.63;;
53652;SDS011;39553;52.954;5.932;2023-03-31T08:46:58;9.60;;;4.20;;
53652;SDS011;39553;52.954;5.932;2023-03-31T08:49:28;12.77;;;4.53;;
53652;SDS011;39553;52.954;5.932;2023-03-31T08:52:01;10.05;;;3.92;;
53652;SDS011;39553;52.954;5.932;2023-03-31T08:54:33;12.25;;;3.78;;
53652;SDS011;39553;52.954;5.932;2023-03-31T08:57:10;9.10;;;3.45;;
53652;SDS011;39553;52.954;5.932;2023-03-31T08:59:40;9.32;;;3.33;;
53652;SDS011;39553;52.954;5.932;2023-03-31T09:15:35;5.40;;;3.13;;
53652;SDS011;39553;52.954;5.932;2023-03-31T09:20:56;14.10;;;3.47;;
53652;SDS011;39553;52.954;5.932;2023-03-31T09:23:36;8.15;;;3.80;;
53652;SDS011;39553;52.954;5.932;2023-03-31T09:26:11;8.93;;;3.72;;
53652;SDS011;39553;52.954;5.932;2023-03-31T09:28:46;10.95;;;3.53;;
53652;SDS011;39553;52.954;5.932;2023-03-31T09:31:17;9.70;;;3.78;;
53652;SDS011;39553;52.954;5.932;2023-03-31T09:33:46;5.72;;;3.35;;
53652;SDS011;39553;52.954;5.932;2023-03-31T09:36:15;9.32;;;3.30;;
53652;SDS011;39553;52.954;5.932;2023-03-31T09:38:44;7.75;;;3.30;;
53652;SDS011;39553;52.954;5.932;2023-03-31T09:41:11;6.85;;;3.50;;
53652;SDS011;39553;52.954;5.932;2023-03-31T09:43:40;5.90;;;2.88;;
53652;SDS011;39553;52.954;5.932;2023-03-31T09:48:59;6.20;;;3.42;;
53652;SDS011;39553;52.954;5.932;2023-03-31T09:54:54;8.27;;;3.75;;
53652;SDS011;39553;52.954;5.932;2023-03-31T09:57:25;10.50;;;4.03;;
53652;SDS011;39553;52.954;5.932;2023-03-31T10:02:52;9.80;;;3.85;;
53652;SDS011;39553;52.954;5.932;2023-03-31T10:05:21;9.90;;;3.72;;
53652;SDS011;39553;52.954;5.932;2023-03-31T10:07:54;9.23;;;3.42;;
53652;SDS011;39553;52.954;5.932;2023-03-31T10:10:48;7.35;;;3.65;;
53652;SDS011;39553;52.954;5.932;2023-03-31T10:13:20;4.43;;;2.60;;
53652;SDS011;39553;52.954;5.932;2023-03-31T10:16:00;5.72;;;3.10;;
53652;SDS011;39553;52.954;5.932;2023-03-31T10:18:36;9.25;;;3.83;;
53652;SDS011;39553;52.954;5.932;2023-03-31T10:21:05;6.30;;;3.28;;
53652;SDS011;39553;52.954;5.932;2023-03-31T10:23:33;12.18;;;3.63;;
53652;SDS011;39553;52.954;5.932;2023-03-31T10:26:00;8.63;;;2.72;;
53652;SDS011;39553;52.954;5.932;2023-03-31T10:28:30;4.82;;;3.15;;
53652;SDS011;39553;52.954;5.932;2023-03-31T10:30:58;11.88;;;4.05;;
53652;SDS011;39553;52.954;5.932;2023-03-31T10:33:26;6.05;;;2.35;;
53652;SDS011;39553;52.954;5.932;2023-03-31T10:36:00;8.35;;;3.45;;
53652;SDS011;39553;52.954;5.932;2023-03-31T10:38:35;10.45;;;3.40;;
53652;SDS011;39553;52.954;5.932;2023-03-31T10:41:06;11.20;;;2.78;;
53652;SDS011;39553;52.954;5.932;2023-03-31T10:43:38;5.13;;;2.60;;
53652;SDS011;39553;52.954;5.932;2023-03-31T10:46:06;11.52;;;2.63;;
53652;SDS011;39553;52.954;5.932;2023-03-31T10:48:36;11.65;;;3.15;;
53652;SDS011;39553;52.954;5.932;2023-03-31T10:56:13;8.38;;;3.08;;
53652;SDS011;39553;52.954;5.932;2023-03-31T11:07:50;6.07;;;2.80;;
53652;SDS011;39553;52.954;5.932;2023-03-31T11:10:25;8.27;;;3.05;;
53652;SDS011;39553;52.954;5.932;2023-03-31T11:16:11;8.80;;;3.97;;
53652;SDS011;39553;52.954;5.932;2023-03-31T11:28:17;7.57;;;3.70;;
53652;SDS011;39553;52.954;5.932;2023-03-31T11:30:57;12.05;;;3.58;;
53652;SDS011;39553;52.954;5.932;2023-03-31T11:33:57;10.55;;;3.45;;
53652;SDS011;39553;52.954;5.932;2023-03-31T11:36:41;13.18;;;3.85;;
53652;SDS011;39553;52.954;5.932;2023-03-31T11:39:41;10.15;;;3.60;;
53652;SDS011;39553;52.954;5.932;2023-03-31T11:42:15;8.07;;;3.53;;
53652;SDS011;39553;52.954;5.932;2023-03-31T11:45:02;9.93;;;3.85;;
53652;SDS011;39553;52.954;5.932;2023-03-31T11:47:37;10.98;;;4.15;;
53652;SDS011;39553;52.954;5.932;2023-03-31T11:50:13;7.97;;;3.50;;
53652;SDS011;39553;52.954;5.932;2023-03-31T11:53:23;9.73;;;3.38;;
53652;SDS011;39553;52.954;5.932;2023-03-31T11:55:42;8.30;;;3.08;;
53652;SDS011;39553;52.954;5.932;2023-03-31T11:58:14;9.85;;;3.15;;
53652;SDS011;39553;52.954;5.932;2023-03-31T12:06:27;12.43;;;3.83;;
53652;SDS011;39553;52.954;5.932;2023-03-31T12:11:31;13.80;;;5.18;;
53652;SDS011;39553;52.954;5.932;2023-03-31T12:14:20;10.23;;;4.75;;
53652;SDS011;39553;52.954;5.932;2023-03-31T12:16:50;12.20;;;4.00;;
53652;SDS011;39553;52.954;5.932;2023-03-31T12:21:48;11.30;;;4.65;;
53652;SDS011;39553;52.954;5.932;2023-03-31T12:24:25;17.45;;;4.40;;
53652;SDS011;39553;52.954;5.932;2023-03-31T12:27:02;14.73;;;4.85;;
53652;SDS011;39553;52.954;5.932;2023-03-31T12:32:29;15.68;;;4.07;;
53652;SDS011;39553;52.954;5.932;2023-03-31T12:35:44;14.18;;;5.75;;
53652;SDS011;39553;52.954;5.932;2023-03-31T12:46:08;17.45;;;6.75;;
53652;SDS011;39553;52.954;5.932;2023-03-31T12:51:24;11.85;;;4.25;;
53652;SDS011;39553;52.954;5.932;2023-03-31T12:54:21;8.10;;;3.28;;
53652;SDS011;39553;52.954;5.932;2023-03-31T12:59:36;7.72;;;2.53;;
53652;SDS011;39553;52.954;5.932;2023-03-31T13:02:25;12.27;;;2.90;;
53652;SDS011;39553;52.954;5.932;2023-03-31T13:04:51;4.70;;;1.90;;
53652;SDS011;39553;52.954;5.932;2023-03-31T13:09:55;8.48;;;2.03;;
53652;SDS011;39553;52.954;5.932;2023-03-31T13:12:23;5.85;;;1.77;;
53652;SDS011;39553;52.954;5.932;2023-03-31T13:14:52;6.85;;;2.60;;
53652;SDS011;39553;52.954;5.932;2023-03-31T13:17:29;5.35;;;1.77;;
53652;SDS011;39553;52.954;5.932;2023-03-31T13:20:16;7.95;;;1.92;;
53652;SDS011;39553;52.954;5.932;2023-03-31T13:23:01;5.80;;;1.75;;
53652;SDS011;39553;52.954;5.932;2023-03-31T13:28:12;5.65;;;2.05;;
53652;SDS011;39553;52.954;5.932;2023-03-31T13:33:22;7.03;;;2.33;;
53652;SDS011;39553;52.954;5.932;2023-03-31T13:41:42;5.35;;;1.95;;
53652;SDS011;39553;52.954;5.932;2023-03-31T13:47:54;8.15;;;1.80;;
53652;SDS011;39553;52.954;5.932;2023-03-31T13:53:06;6.68;;;1.80;;
53652;SDS011;39553;52.954;5.932;2023-03-31T13:55:49;8.75;;;1.90;;
53652;SDS011;39553;52.954;5.932;2023-03-31T14:01:38;5.05;;;2.58;;
53652;SDS011;39553;52.954;5.932;2023-03-31T14:04:29;4.90;;;1.63;;
53652;SDS011;39553;52.954;5.932;2023-03-31T14:09:54;7.35;;;2.63;;
53652;SDS011;39553;52.954;5.932;2023-03-31T14:12:32;6.10;;;2.67;;
53652;SDS011;39553;52.954;5.932;2023-03-31T14:15:00;7.43;;;2.53;;
53652;SDS011;39553;52.954;5.932;2023-03-31T14:17:29;5.97;;;1.88;;
53652;SDS011;39553;52.954;5.932;2023-03-31T14:23:19;5.82;;;1.77;;
53652;SDS011;39553;52.954;5.932;2023-03-31T14:26:04;3.53;;;1.40;;
53652;SDS011;39553;52.954;5.932;2023-03-31T14:33:43;6.65;;;1.55;;
53652;SDS011;39553;52.954;5.932;2023-03-31T14:36:22;7.07;;;2.25;;
53652;SDS011;39553;52.954;5.932;2023-03-31T14:39:00;7.95;;;2.20;;
53652;SDS011;39553;52.954;5.932;2023-03-31T14:41:28;5.82;;;1.70;;
53652;SDS011;39553;52.954;5.932;2023-03-31T14:43:55;5.03;;;1.85;;
53652;SDS011;39553;52.954;5.932;2023-03-31T14:46:24;9.25;;;1.92;;
53652;SDS011;39553;52.954;5.932;2023-03-31T14:48:50;3.80;;;1.42;;
53652;SDS011;39553;52.954;5.932;2023-03-31T14:51:18;4.63;;;1.63;;
53652;SDS011;39553;52.954;5.932;2023-03-31T14:54:00;5.05;;;1.95;;
53652;SDS011;39553;52.954;5.932;2023-03-31T14:56:33;5.82;;;1.80;;
53652;SDS011;39553;52.954;5.932;2023-03-31T14:59:03;6.57;;;2.22;;
53652;SDS011;39553;52.954;5.932;2023-03-31T15:01:32;5.97;;;1.80;;
53652;SDS011;39553;52.954;5.932;2023-03-31T15:04:07;7.78;;;2.25;;
53652;SDS011;39553;52.954;5.932;2023-03-31T15:06:37;8.57;;;2.15;;
53652;SDS011;39553;52.954;5.932;2023-03-31T15:09:10;9.15;;;2.47;;
53652;SDS011;39553;52.954;5.932;2023-03-31T15:11:46;6.95;;;1.73;;
53652;SDS011;39553;52.954;5.932;2023-03-31T15:14:17;6.00;;;2.40;;
53652;SDS011;39553;52.954;5.932;2023-03-31T15:16:43;6.40;;;2.05;;
53652;SDS011;39553;52.954;5.932;2023-03-31T15:19:11;8.13;;;2.58;;
53652;SDS011;39553;52.954;5.932;2023-03-31T15:21:40;9.48;;;1.70;;
53652;SDS011;39553;52.954;5.932;2023-03-31T15:24:06;7.72;;;2.40;;
53652;SDS011;39553;52.954;5.932;2023-03-31T15:26:40;9.45;;;2.13;;
53652;SDS011;39553;52.954;5.932;2023-03-31T15:29:15;7.70;;;2.40;;
53652;SDS011;39553;52.954;5.932;2023-03-31T15:31:47;7.90;;;2.95;;
53652;SDS011;39553;52.954;5.932;2023-03-31T15:34:14;9.35;;;2.88;;
53652;SDS011;39553;52.954;5.932;2023-03-31T15:36:45;6.80;;;2.75;;
53652;SDS011;39553;52.954;5.932;2023-03-31T15:39:12;12.75;;;2.38;;
53652;SDS011;39553;52.954;5.932;2023-03-31T15:41:38;8.70;;;3.53;;
53652;SDS011;39553;52.954;5.932;2023-03-31T15:54:57;5.55;;;2.38;;
53652;SDS011;39553;52.954;5.932;2023-03-31T15:57:29;8.23;;;2.22;;
53652;SDS011;39553;52.954;5.932;2023-03-31T16:00:00;5.85;;;2.72;;
53652;SDS011;39553;52.954;5.932;2023-03-31T16:02:40;7.90;;;2.40;;
53652;SDS011;39553;52.954;5.932;2023-03-31T16:05:23;6.07;;;2.20;;
53652;SDS011;39553;52.954;5.932;2023-03-31T16:08:11;7.93;;;2.78;;
53652;SDS011;39553;52.954;5.932;2023-03-31T16:10:41;12.50;;;2.20;;
53652;SDS011;39553;52.954;5.932;2023-03-31T16:13:07;5.70;;;2.38;;
53652;SDS011;39553;52.954;5.932;2023-03-31T16:15:37;13.85;;;2.97;;
53652;SDS011;39553;52.954;5.932;2023-03-31T16:18:07;6.28;;;2.53;;
53652;SDS011;39553;52.954;5.932;2023-03-31T16:20:38;10.93;;;2.08;;
53652;SDS011;39553;52.954;5.932;2023-03-31T16:23:17;8.32;;;2.78;;
53652;SDS011;39553;52.954;5.932;2023-03-31T16:25:48;10.55;;;2.78;;
53652;SDS011;39553;52.954;5.932;2023-03-31T16:28:19;10.55;;;3.83;;
53652;SDS011;39553;52.954;5.932;2023-03-31T16:30:47;10.75;;;2.83;;
53652;SDS011;39553;52.954;5.932;2023-03-31T16:33:15;13.55;;;3.58;;
53652;SDS011;39553;52.954;5.932;2023-03-31T16:35:44;10.70;;;2.25;;
53652;SDS011;39553;52.954;5.932;2023-03-31T16:38:13;7.68;;;2.72;;
53652;SDS011;39553;52.954;5.932;2023-03-31T16:40:45;6.13;;;2.13;;
53652;SDS011;39553;52.954;5.932;2023-03-31T16:45:50;5.45;;;2.40;;
53652;SDS011;39553;52.954;5.932;2023-03-31T16:48:19;3.92;;;1.33;;
53652;SDS011;39553;52.954;5.932;2023-03-31T16:50:50;6.50;;;2.08;;
53652;SDS011;39553;52.954;5.932;2023-03-31T16:53:22;4.57;;;1.60;;
53652;SDS011;39553;52.954;5.932;2023-03-31T16:58:19;4.05;;;1.20;;
53652;SDS011;39553;52.954;5.932;2023-03-31T17:00:51;4.80;;;1.50;;
53652;SDS011;39553;52.954;5.932;2023-03-31T17:03:18;3.38;;;1.20;;
53652;SDS011;39553;52.954;5.932;2023-03-31T17:05:49;7.93;;;1.45;;
53652;SDS011;39553;52.954;5.932;2023-03-31T17:08:17;4.07;;;1.17;;
53652;SDS011;39553;52.954;5.932;2023-03-31T17:10:52;2.92;;;1.70;;
53652;SDS011;39553;52.954;5.932;2023-03-31T17:13:38;3.97;;;1.50;;
53652;SDS011;39553;52.954;5.932;2023-03-31T17:16:06;5.60;;;2.05;;
53652;SDS011;39553;52.954;5.932;2023-03-31T17:18:37;5.93;;;1.63;;
53652;SDS011;39553;52.954;5.932;2023-03-31T17:21:03;6.03;;;2.45;;
53652;SDS011;39553;52.954;5.932;2023-03-31T17:23:31;3.03;;;1.77;;
53652;SDS011;39553;52.954;5.932;2023-03-31T17:25:57;3.08;;;1.58;;
53652;SDS011;39553;52.954;5.932;2023-03-31T17:28:24;4.20;;;1.70;;
53652;SDS011;39553;52.954;5.932;2023-03-31T17:30:50;6.60;;;1.83;;
53652;SDS011;39553;52.954;5.932;2023-03-31T17:33:16;5.97;;;2.03;;
53652;SDS011;39553;52.954;5.932;2023-03-31T17:35:42;5.85;;;2.30;;
53652;SDS011;39553;52.954;5.932;2023-03-31T17:38:09;5.20;;;2.08;;
53652;SDS011;39553;52.954;5.932;2023-03-31T17:40:38;2.95;;;2.05;;
53652;SDS011;39553;52.954;5.932;2023-03-31T17:43:05;4.32;;;1.90;;
53652;SDS011;39553;52.954;5.932;2023-03-31T17:45:31;8.57;;;2.80;;
53652;SDS011;39553;52.954;5.932;2023-03-31T17:47:58;9.00;;;2.67;;
53652;SDS011;39553;52.954;5.932;2023-03-31T17:50:25;4.88;;;3.05;;
53652;SDS011;39553;52.954;5.932;2023-03-31T17:52:52;5.22;;;2.78;;
53652;SDS011;39553;52.954;5.932;2023-03-31T17:55:18;5.88;;;2.97;;
53652;SDS011;39553;52.954;5.932;2023-03-31T17:57:44;8.48;;;3.63;;
53652;SDS011;39553;52.954;5.932;2023-03-31T18:00:10;7.07;;;4.28;;
53652;SDS011;39553;52.954;5.932;2023-03-31T18:02:42;7.13;;;4.25;;